Latest Weather Observations for Ceduna

IDS60801

Issued at 6:02 pm CDT Friday 27 February 2015 (issued every 30 minutes, with the page automatically refreshed every 10 minutes)

About weather observations | Map of weather stations | Latest weather observations for SA | Other Formats
Station Details ID: 018012 Name: CEDUNA AMO Lat: -32.13 Lon: 133.70 Height: 15.3 m
Data from the previous 72 hours. | See also: Recent months at Ceduna
Date/Time
CDT
Temp
°C
App
Temp
°C
Dew
Point
Rel
Hum
%
Delta-T
°C
Wind Press
QNH
hPa
Press
MSL
hPa
Rain
since 9 am
mm
Dir
 
Spd
km/h
Gust
km/h
Spd
kts
Gust
kts
27/06:00pm 33.1 28.8 7.1 20 14.3 SE 19 24 10 13 1003.4 1003.3 0.0
27/05:30pm 33.6 29.6 6.8 19 14.7 SE 17 22 9 12 1003.4 1003.3 0.0
27/05:00pm 33.7 30.2 5.3 17 15.2 SSE 13 17 7 9 1003.6 1003.5 0.0
27/04:30pm 31.5 27.3 5.8 20 13.7 SSE 17 20 9 11 1004.0 1003.9 0.0
27/04:00pm 31.2 26.6 5.6 20 13.5 SSW 19 24 10 13 1004.5 1004.4 0.0
27/03:30pm 29.2 24.5 7.7 26 11.7 SW 22 28 12 15 1005.4 1005.3 0.0
27/03:03pm 29.7 25.1 6.4 23 12.4 NW 20 28 11 15 1005.8 1005.7 0.0
27/03:00pm 35.4 29.9 3.8 14 16.7 NNW 22 30 12 16 1005.6 1005.5 0.0
27/02:30pm 34.7 27.4 2.3 13 16.6 NNW 30 39 16 21 1005.6 1005.5 0.0
27/02:03pm 34.6 27.8 3.2 14 16.3 NW 28 46 15 25 1005.6 1005.5 0.0
27/02:00pm 34.6 28.2 3.2 14 16.3 NW 26 37 14 20 1005.6 1005.5 0.0
27/01:30pm 35.5 28.7 0.6 11 17.5 N 26 37 14 20 1005.8 1005.7 0.0
27/01:00pm 36.1 28.2 1.0 11 17.7 N 32 44 17 24 1005.9 1005.8 0.0
27/12:30pm 36.2 27.7 1.1 11 17.8 N 35 50 19 27 1006.3 1006.2 0.0
27/12:00pm 37.4 29.1 2.0 11 18.4 N 35 46 19 25 1006.8 1006.7 0.0
27/11:30am 36.6 28.0 2.6 12 17.7 N 37 50 20 27 1007.2 1007.1 0.0
27/11:00am 34.7 27.5 5.2 16 15.8 N 32 43 17 23 1007.6 1007.5 0.0
27/10:30am 32.0 26.1 7.6 22 13.4 N 28 35 15 19 1007.9 1007.8 0.0
27/10:00am 31.0 25.8 8.7 25 12.4 NNE 26 32 14 17 1007.7 1007.6 0.0
27/09:30am 30.0 24.5 9.0 27 11.7 NNE 28 35 15 19 1007.6 1007.5 0.0
27/09:00am 29.4 25.1 9.5 29 11.2 NNE 22 30 12 16 1007.4 1007.3 0.0
27/08:30am 28.7 24.0 9.4 30 10.8 NNE 24 35 13 19 1007.2 1007.1 0.0
27/08:00am 28.4 23.4 9.6 31 10.5 NE 26 35 14 19 1006.7 1006.6 0.0
27/07:30am 27.9 22.4 9.2 31 10.4 NE 28 33 15 18 1006.2 1006.1 0.0
27/07:00am 27.9 22.4 9.2 31 10.3 ENE 28 33 15 18 1005.9 1005.8 0.0
27/06:30am 27.6 22.4 9.0 31 10.3 NE 26 35 14 19 1005.9 1005.8 0.0
27/06:00am 26.2 21.5 7.7 31 9.9 ENE 22 24 12 13 1005.8 1005.7 0.0
27/05:30am 24.5 19.9 6.7 32 9.3 ENE 20 24 11 13 1005.6 1005.5 0.0
27/05:00am 22.9 18.4 6.2 34 8.5 ENE 19 22 10 12 1005.7 1005.6 0.0
27/04:30am 21.6 17.7 5.5 35 8.0 NE 15 17 8 9 1005.8 1005.7 0.0
27/04:00am 20.8 16.5 5.2 36 7.7 NE 17 19 9 10 1006.0 1005.9 0.0
27/03:30am 19.7 15.4 5.4 39 7.0 ENE 17 20 9 11 1006.1 1006.0 0.0
27/03:00am 18.4 15.2 4.9 41 6.5 ENE 11 11 6 6 1006.3 1006.2 0.0
27/02:30am 18.6 15.0 5.1 41 6.6 E 13 15 7 8 1006.8 1006.7 0.0
27/02:00am 18.8 15.9 4.9 40 6.7 E 9 11 5 6 1007.6 1007.5 0.0
27/01:30am 19.4 16.7 5.8 41 6.7 E 9 15 5 8 1008.0 1007.9 0.0
27/01:00am 21.2 17.3 5.5 36 7.8 E 15 19 8 10 1008.2 1008.1 0.0
27/12:30am 21.5 18.1 7.7 41 7.2 E 15 19 8 10 1008.0 1007.9 0.0
27/12:00am 20.1 17.8 9.1 49 5.8 E 11 13 6 7 1008.6 1008.5 0.0
 
Date/Time
CDT
Temp
°C
App
Temp
°C
Dew
Point
Rel
Hum
%
Delta-T
°C
Wind Press
QNH
hPa
Press
MSL
hPa
Rain
since 9 am
mm
Dir
 
Spd
km/h
Gust
km/h
Spd
kts
Gust
kts
26/11:30pm 21.8 19.3 9.7 46 6.5 ESE 13 17 7 9 1009.2 1009.1 0.0
26/11:00pm 22.6 21.5 13.1 55 5.5 SE 11 19 6 10 1009.5 1009.4 0.0
26/10:30pm 23.0 20.5 11.1 47 6.6 SE 15 22 8 12 1009.2 1009.1 0.0
26/10:00pm 23.3 21.0 10.4 44 7.1 SE 13 20 7 11 1009.1 1009.0 0.0
26/09:30pm 23.5 21.0 10.9 45 7.0 SSE 15 19 8 10 1009.2 1009.1 0.0
26/09:00pm 24.2 21.6 10.8 43 7.5 SSE 15 19 8 10 1008.6 1008.5 0.0
26/08:30pm 25.1 20.4 7.7 33 9.2 SSE 22 30 12 16 1008.3 1008.2 0.0
26/08:00pm 25.3 20.0 10.0 38 8.5 SSE 28 35 15 19 1008.1 1008.0 0.0
26/07:30pm 25.7 21.9 12.5 44 7.6 SSE 24 32 13 17 1008.1 1008.0 0.0
26/07:00pm 26.9 22.9 12.9 42 8.2 S 26 32 14 17 1008.1 1008.0 0.0
26/06:30pm 31.0 25.9 6.1 21 13.3 S 22 28 12 15 1007.8 1007.7 0.0
26/06:00pm 32.6 27.0 3.5 16 15.0 S 22 26 12 14 1007.8 1007.7 0.0
26/05:30pm 32.9 26.3 1.9 14 15.6 S 26 30 14 16 1007.9 1007.8 0.0
26/05:00pm 32.7 26.9 4.5 17 14.8 S 24 30 13 16 1008.2 1008.1 0.0
26/04:30pm 32.4 27.1 8.6 23 13.3 S 26 32 14 17 1008.3 1008.2 0.0
26/04:00pm 31.8 26.3 9.3 25 12.7 S 28 32 15 17 1008.7 1008.6 0.0
26/03:30pm 32.0 26.4 10.1 26 12.5 S 30 35 16 19 1008.9 1008.8 0.0
26/03:00pm 32.6 27.9 10.6 26 12.7 S 26 33 14 18 1009.2 1009.1 0.0
26/02:30pm 34.1 30.2 9.4 22 14.1 S 20 26 11 14 1009.3 1009.2 0.0
26/02:00pm 33.0 28.5 8.5 22 13.7 S 22 28 12 15 1009.8 1009.7 0.0
26/01:30pm 32.1 28.1 9.0 24 13.0 S 20 30 11 16 1010.1 1010.0 0.0
26/01:00pm 33.3 31.0 5.0 17 15.0 SE 6 17 3 9 1010.9 1010.8 0.0
26/12:30pm 33.0 29.7 4.7 17 14.9 E 11 17 6 9 1011.2 1011.1 0.0
26/12:00pm 32.0 29.2 7.0 21 13.6 ENE 11 19 6 10 1011.7 1011.6 0.0
26/11:30am 30.3 27.4 8.1 25 12.2 ENE 13 19 7 10 1012.1 1012.0 0.0
26/11:00am 28.1 25.4 8.9 30 10.6 ENE 13 20 7 11 1012.3 1012.2 0.0
26/10:30am 26.6 24.3 9.0 33 9.6 E 11 15 6 8 1012.8 1012.7 0.0
26/10:00am 24.2 22.2 10.1 41 7.8 SSE 11 15 6 8 1013.0 1012.9 0.0
26/09:30am 21.2 20.1 11.8 55 5.2 SE 9 13 5 7 1012.8 1012.7 0.0
26/09:00am 19.1 18.6 12.6 66 3.6 ESE 7 9 4 5 1012.8 1012.7 0.0
26/08:30am 16.2 16.8 13.1 82 1.7 S 2 6 1 3 1012.6 1012.5 0.0
26/08:00am 14.7 13.8 12.7 88 1.1 NE 9 11 5 6 1012.1 1012.0 0.0
26/07:30am 13.1 12.4 11.3 89 1.0 E 6 9 3 5 1011.8 1011.7 0.0
26/07:00am 13.4 12.3 11.8 90 0.9 E 9 11 5 6 1011.5 1011.4 0.0
26/06:30am 13.7 12.4 11.4 86 1.2 E 9 11 5 6 1011.2 1011.1 0.0
26/06:00am 14.5 14.0 12.7 89 1.0 SE 7 7 4 4 1011.2 1011.1 0.0
26/05:30am 14.4 14.7 12.1 86 1.2 WSW 2 7 1 4 1011.1 1011.0 0.0
26/05:00am 15.5 15.4 13.3 87 1.2 W 6 7 3 4 1011.0 1010.9 0.0
26/04:30am 15.2 14.5 13.2 88 1.1 N 9 13 5 7 1010.7 1010.6 0.0
26/04:00am 15.1 14.5 13.5 90 0.9 NE 9 11 5 6 1010.5 1010.4 0.0
26/03:30am 14.7 14.7 13.7 94 0.6 ESE 6 7 3 4 1010.7 1010.6 0.0
26/03:00am 12.7 13.1 11.3 91 0.7 CALM 0 2 0 1 1011.1 1011.0 0.0
26/02:30am 13.1 11.9 11.5 90 0.8 E 9 11 5 6 1011.4 1011.3 0.0
26/02:00am 13.3 12.6 11.4 88 1.0 ENE 6 7 3 4 1012.2 1012.1 0.0
26/01:30am 14.4 13.7 12.1 86 1.2 SE 7 9 4 5 1012.4 1012.3 0.0
26/01:00am 16.1 16.1 13.6 85 1.4 S 6 7 3 4 1013.1 1013.0 0.0
26/12:30am 15.8 16.0 13.1 84 1.5 ESE 4 6 2 3 1013.1 1013.0 0.0
26/12:00am 16.8 16.8 14.1 84 1.5 SE 7 9 4 5 1013.4 1013.3 0.0
 
Date/Time
CDT
Temp
°C
App
Temp
°C
Dew
Point
Rel
Hum
%
Delta-T
°C
Wind Press
QNH
hPa
Press
MSL
hPa
Rain
since 9 am
mm
Dir
 
Spd
km/h
Gust
km/h
Spd
kts
Gust
kts
25/11:30pm 16.3 15.3 13.4 83 1.6 SSE 11 13 6 7 1013.9 1013.8 0.0
25/11:00pm 16.0 15.8 13.5 85 1.4 SSE 7 9 4 5 1014.1 1014.0 0.0
25/10:30pm 16.7 16.0 14.2 85 1.4 S 11 13 6 7 1014.2 1014.1 0.0
25/10:00pm 16.8 16.8 14.1 84 1.5 S 7 9 4 5 1014.0 1013.9 0.0
25/09:30pm 17.6 17.9 14.5 82 1.8 SSE 6 7 3 4 1013.4 1013.3 0.0
25/09:00pm 18.2 17.8 15.1 82 1.8 S 11 15 6 8 1013.5 1013.4 0.0
25/08:30pm 19.0 17.7 15.7 81 2.0 S 17 20 9 11 1013.2 1013.1 0.0
25/08:00pm 20.2 18.4 15.6 75 2.7 S 19 24 10 13 1013.1 1013.0 0.0
25/07:30pm 21.2 19.1 15.1 68 3.6 S 20 26 11 14 1012.9 1012.8 0.0
25/07:00pm 22.0 19.2 13.1 57 5.1 S 20 26 11 14 1012.8 1012.7 0.0
25/06:30pm 23.4 19.8 13.0 52 6.0 S 24 30 13 16 1012.7 1012.6 0.0
25/06:00pm 24.3 20.7 10.6 42 7.6 S 20 26 11 14 1012.6 1012.5 0.0
25/05:30pm 24.0 19.8 11.0 44 7.3 S 24 30 13 16 1012.6 1012.5 0.0
25/05:00pm 25.7 21.2 9.9 37 8.7 S 24 30 13 16 1012.7 1012.6 0.0
25/04:30pm 25.5 20.6 10.1 38 8.5 S 26 32 14 17 1012.6 1012.5 0.0
25/04:00pm 27.3 21.5 4.4 23 11.6 S 24 30 13 16 1012.8 1012.7 0.0
25/03:30pm 26.3 21.5 11.6 40 8.4 SSW 28 35 15 19 1012.8 1012.7 0.0
25/03:00pm 26.2 21.6 12.3 42 8.0 SSW 28 35 15 19 1013.1 1013.0 0.0
25/02:30pm 26.9 22.6 6.9 28 10.6 SSW 19 22 10 12 1013.1 1013.0 0.0
25/02:00pm 26.4 23.1 7.9 31 9.9 SSW 15 17 8 9 1013.5 1013.4 0.0
25/01:30pm 25.6 22.5 9.0 35 9.0 SW 15 19 8 10 1014.0 1013.9 0.0
25/01:00pm 25.9 24.4 9.3 35 9.1 SSW 7 15 4 8 1014.4 1014.3 0.0
25/12:30pm 24.5 22.3 10.8 42 7.6 SSW 13 20 7 11 1015.2 1015.1 0.0
25/12:00pm 22.9 20.3 11.9 50 6.2 SW 17 20 9 11 1015.7 1015.6 0.0
25/11:30am 23.6 22.6 11.0 45 7.0 SSW 7 20 4 11 1015.8 1015.7 0.0
25/11:00am 22.9 21.3 8.2 39 7.8 N 6 9 3 5 1016.2 1016.1 0.0
25/10:30am 21.2 19.7 9.1 46 6.4 NNE 7 15 4 8 1016.3 1016.2 0.0
25/10:00am 19.5 18.4 10.5 56 4.9 NE 7 11 4 6 1016.5 1016.4 0.0
25/09:30am 17.1 14.4 10.5 65 3.5 E 15 20 8 11 1016.5 1016.4 0.0
25/09:00am 15.3 11.9 10.5 73 2.5 ESE 19 22 10 12 1016.7 1016.6 0.0
25/08:30am 12.2 10.9 9.9 86 1.2 ENE 7 13 4 7 1016.9 1016.8 0.0
25/08:00am 9.2 6.3 8.0 92 0.6 E 13 13 7 7 1016.4 1016.3 0.0
25/07:30am 7.3 5.3 6.2 93 0.5 ENE 6 7 3 4 1016.6 1016.5 0.0
25/07:00am 7.4 4.9 6.5 94 0.4 E 9 11 5 6 1016.4 1016.3 0.0
25/06:30am 6.3 5.1 4.5 88 0.8 CALM 0 0 0 0 1016.2 1016.1 0.0
25/06:00am 8.7 6.6 6.8 88 0.9 NNW 7 9 4 5 1016.3 1016.2 0.0
25/05:30am 9.9 7.7 7.7 86 1.1 NE 9 11 5 6 1015.9 1015.8 0.0
25/05:00am 10.9 8.8 8.1 83 1.4 ENE 9 13 5 7 1015.7 1015.6 0.0
25/04:30am 12.3 9.7 9.3 82 1.5 E 13 15 7 8 1015.8 1015.7 0.0
25/04:00am 12.1 9.8 8.9 81 1.6 E 11 13 6 7 1015.8 1015.7 0.0
25/03:30am 12.7 10.4 9.0 78 1.9 ESE 11 15 6 8 1015.9 1015.8 0.0
25/03:00am 13.3 10.2 9.0 75 2.2 ESE 15 17 8 9 1016.0 1015.9 0.0
25/02:30am 14.3 10.9 9.3 72 2.6 ESE 17 19 9 10 1016.3 1016.2 0.0
25/02:00am 15.0 11.7 9.4 69 2.9 ESE 17 19 9 10 1016.6 1016.5 0.0
25/01:30am 15.3 11.7 9.9 70 2.8 SE 19 22 10 12 1016.8 1016.7 0.0
25/01:00am 15.5 13.0 11.1 75 2.3 SE 15 19 8 10 1017.0 1016.9 0.0
25/12:30am 16.0 14.0 12.7 81 1.8 SE 15 19 8 10 1017.1 1017.0 0.0
25/12:00am 16.6 15.2 13.5 82 1.7 SE 13 19 7 10 1017.5 1017.4 0.0
 
Date/Time
CDT
Temp
°C
App
Temp
°C
Dew
Point
Rel
Hum
%
Delta-T
°C
Wind Press
QNH
hPa
Press
MSL
hPa
Rain
since 9 am
mm
Dir
 
Spd
km/h
Gust
km/h
Spd
kts
Gust
kts
24/11:30pm 16.8 15.8 13.3 80 2.0 SSE 11 15 6 8 1017.8 1017.7 0.0
24/11:00pm 17.4 14.9 13.5 78 2.2 SSE 19 26 10 14 1018.0 1017.9 0.0
24/10:30pm 17.7 15.2 13.6 77 2.3 SSE 19 28 10 15 1018.3 1018.2 0.0
24/10:00pm 17.8 14.3 13.5 76 2.4 SSE 24 33 13 18 1018.1 1018.0 0.0
24/09:30pm 18.0 13.9 13.9 77 2.3 SSE 28 39 15 21 1017.8 1017.7 0.0
24/09:00pm 18.1 13.2 13.6 75 2.6 SSE 32 43 17 23 1017.7 1017.6 0.0
24/08:30pm 18.2 13.4 14.1 77 2.3 S 32 41 17 22 1017.6 1017.5 0.0
24/08:00pm 18.8 14.0 13.9 73 2.8 S 32 43 17 23 1017.7 1017.6 0.0
24/07:30pm 19.4 14.3 13.8 70 3.2 S 33 46 18 25 1017.6 1017.5 0.0
24/07:00pm 20.0 14.4 13.2 65 3.9 S 35 46 19 25 1017.4 1017.3 0.0
24/06:30pm 20.2 13.9 13.4 65 3.9 S 39 48 21 26 1017.4 1017.3 0.0

Other Formats:

Comma delimited format used in spreadsheet applications
http://www.bom.gov.au/fwo/IDS60801/IDS60801.94653.axf

JavaScript Object Notation format (JSON) in row-major order
http://www.bom.gov.au/fwo/IDS60801/IDS60801.94653.json